sensor_id;sensor_type;location;lat;lon;timestamp;P1;durP1;ratioP1;P2;durP2;ratioP2
59300;SDS011;45073;52.740;6.784;2022-07-06T00:00:02;6.90;;;2.28;;
59300;SDS011;45073;52.740;6.784;2022-07-06T00:02:29;9.02;;;2.42;;
59300;SDS011;45073;52.740;6.784;2022-07-06T00:04:55;6.18;;;1.55;;
59300;SDS011;45073;52.740;6.784;2022-07-06T00:07:22;6.63;;;1.67;;
59300;SDS011;45073;52.740;6.784;2022-07-06T00:09:48;7.35;;;2.00;;
59300;SDS011;45073;52.740;6.784;2022-07-06T00:12:15;5.82;;;1.85;;
59300;SDS011;45073;52.740;6.784;2022-07-06T00:14:40;5.85;;;1.70;;
59300;SDS011;45073;52.740;6.784;2022-07-06T00:17:06;8.82;;;2.35;;
59300;SDS011;45073;52.740;6.784;2022-07-06T00:19:32;9.00;;;2.75;;
59300;SDS011;45073;52.740;6.784;2022-07-06T00:21:58;6.03;;;1.67;;
59300;SDS011;45073;52.740;6.784;2022-07-06T00:24:23;6.47;;;1.92;;
59300;SDS011;45073;52.740;6.784;2022-07-06T00:26:49;8.23;;;2.33;;
59300;SDS011;45073;52.740;6.784;2022-07-06T00:29:14;8.98;;;1.75;;
59300;SDS011;45073;52.740;6.784;2022-07-06T00:31:40;7.63;;;2.30;;
59300;SDS011;45073;52.740;6.784;2022-07-06T00:34:06;7.60;;;2.10;;
59300;SDS011;45073;52.740;6.784;2022-07-06T00:36:31;6.90;;;1.67;;
59300;SDS011;45073;52.740;6.784;2022-07-06T00:38:57;7.25;;;1.58;;
59300;SDS011;45073;52.740;6.784;2022-07-06T00:41:22;6.05;;;1.65;;
59300;SDS011;45073;52.740;6.784;2022-07-06T00:43:49;10.00;;;2.50;;
59300;SDS011;45073;52.740;6.784;2022-07-06T00:46:21;8.55;;;1.50;;
59300;SDS011;45073;52.740;6.784;2022-07-06T00:48:50;7.70;;;1.98;;
59300;SDS011;45073;52.740;6.784;2022-07-06T00:51:15;6.53;;;2.30;;
59300;SDS011;45073;52.740;6.784;2022-07-06T00:53:41;8.80;;;1.73;;
59300;SDS011;45073;52.740;6.784;2022-07-06T00:56:08;3.83;;;1.52;;
59300;SDS011;45073;52.740;6.784;2022-07-06T00:58:34;7.40;;;2.63;;
59300;SDS011;45073;52.740;6.784;2022-07-06T01:01:01;5.53;;;1.70;;
59300;SDS011;45073;52.740;6.784;2022-07-06T01:03:26;7.90;;;2.30;;
59300;SDS011;45073;52.740;6.784;2022-07-06T01:05:52;8.30;;;2.00;;
59300;SDS011;45073;52.740;6.784;2022-07-06T01:08:18;6.90;;;1.80;;
59300;SDS011;45073;52.740;6.784;2022-07-06T01:10:44;10.43;;;2.28;;
59300;SDS011;45073;52.740;6.784;2022-07-06T01:13:09;11.68;;;1.75;;
59300;SDS011;45073;52.740;6.784;2022-07-06T01:15:35;8.98;;;2.15;;
59300;SDS011;45073;52.740;6.784;2022-07-06T01:18:00;9.50;;;2.30;;
59300;SDS011;45073;52.740;6.784;2022-07-06T01:20:27;6.75;;;1.58;;
59300;SDS011;45073;52.740;6.784;2022-07-06T01:22:54;9.88;;;2.30;;
59300;SDS011;45073;52.740;6.784;2022-07-06T01:25:22;7.50;;;2.03;;
59300;SDS011;45073;52.740;6.784;2022-07-06T01:27:48;7.28;;;1.70;;
59300;SDS011;45073;52.740;6.784;2022-07-06T01:30:17;7.80;;;2.33;;
59300;SDS011;45073;52.740;6.784;2022-07-06T01:32:44;7.13;;;2.40;;
59300;SDS011;45073;52.740;6.784;2022-07-06T01:35:11;8.27;;;1.95;;
59300;SDS011;45073;52.740;6.784;2022-07-06T01:37:38;6.90;;;2.10;;
59300;SDS011;45073;52.740;6.784;2022-07-06T01:40:05;7.45;;;1.70;;
59300;SDS011;45073;52.740;6.784;2022-07-06T01:42:32;9.32;;;2.40;;
59300;SDS011;45073;52.740;6.784;2022-07-06T01:44:58;8.63;;;2.00;;
59300;SDS011;45073;52.740;6.784;2022-07-06T01:47:24;7.35;;;1.83;;
59300;SDS011;45073;52.740;6.784;2022-07-06T01:49:50;5.15;;;1.40;;
59300;SDS011;45073;52.740;6.784;2022-07-06T01:52:16;7.13;;;2.20;;
59300;SDS011;45073;52.740;6.784;2022-07-06T01:54:41;7.22;;;2.25;;
59300;SDS011;45073;52.740;6.784;2022-07-06T01:57:07;8.52;;;2.72;;
59300;SDS011;45073;52.740;6.784;2022-07-06T01:59:33;7.15;;;2.72;;
59300;SDS011;45073;52.740;6.784;2022-07-06T02:01:58;8.88;;;2.47;;
59300;SDS011;45073;52.740;6.784;2022-07-06T02:04:24;8.80;;;2.90;;
59300;SDS011;45073;52.740;6.784;2022-07-06T02:06:50;6.15;;;1.85;;
59300;SDS011;45073;52.740;6.784;2022-07-06T02:09:15;9.68;;;3.00;;
59300;SDS011;45073;52.740;6.784;2022-07-06T02:11:41;8.55;;;2.65;;
59300;SDS011;45073;52.740;6.784;2022-07-06T02:14:07;6.75;;;1.95;;
59300;SDS011;45073;52.740;6.784;2022-07-06T02:16:33;7.38;;;2.50;;
59300;SDS011;45073;52.740;6.784;2022-07-06T02:18:59;7.53;;;1.95;;
59300;SDS011;45073;52.740;6.784;2022-07-06T02:21:24;7.70;;;2.80;;
59300;SDS011;45073;52.740;6.784;2022-07-06T02:23:50;6.68;;;2.28;;
59300;SDS011;45073;52.740;6.784;2022-07-06T02:26:15;7.55;;;2.90;;
59300;SDS011;45073;52.740;6.784;2022-07-06T02:28:41;5.55;;;2.10;;
59300;SDS011;45073;52.740;6.784;2022-07-06T02:31:07;9.43;;;2.78;;
59300;SDS011;45073;52.740;6.784;2022-07-06T02:33:33;8.95;;;2.40;;
59300;SDS011;45073;52.740;6.784;2022-07-06T02:35:58;8.90;;;2.80;;
59300;SDS011;45073;52.740;6.784;2022-07-06T02:38:24;8.48;;;2.20;;
59300;SDS011;45073;52.740;6.784;2022-07-06T02:40:50;8.30;;;2.60;;
59300;SDS011;45073;52.740;6.784;2022-07-06T02:43:15;6.75;;;1.90;;
59300;SDS011;45073;52.740;6.784;2022-07-06T02:45:41;7.80;;;2.80;;
59300;SDS011;45073;52.740;6.784;2022-07-06T02:48:06;8.32;;;2.10;;
59300;SDS011;45073;52.740;6.784;2022-07-06T02:50:32;6.70;;;2.33;;
59300;SDS011;45073;52.740;6.784;2022-07-06T02:52:57;10.50;;;2.38;;
59300;SDS011;45073;52.740;6.784;2022-07-06T02:55:23;6.93;;;2.05;;
59300;SDS011;45073;52.740;6.784;2022-07-06T02:57:49;6.75;;;2.08;;
59300;SDS011;45073;52.740;6.784;2022-07-06T03:00:15;8.73;;;2.85;;
59300;SDS011;45073;52.740;6.784;2022-07-06T03:02:41;8.85;;;2.97;;
59300;SDS011;45073;52.740;6.784;2022-07-06T03:05:07;7.93;;;2.60;;
59300;SDS011;45073;52.740;6.784;2022-07-06T03:07:33;7.10;;;2.58;;
59300;SDS011;45073;52.740;6.784;2022-07-06T03:09:58;5.70;;;1.80;;
59300;SDS011;45073;52.740;6.784;2022-07-06T03:12:24;7.55;;;1.88;;
59300;SDS011;45073;52.740;6.784;2022-07-06T03:14:49;8.32;;;2.80;;
59300;SDS011;45073;52.740;6.784;2022-07-06T03:17:15;7.50;;;2.80;;
59300;SDS011;45073;52.740;6.784;2022-07-06T03:19:41;7.57;;;1.92;;
59300;SDS011;45073;52.740;6.784;2022-07-06T03:22:06;7.60;;;2.63;;
59300;SDS011;45073;52.740;6.784;2022-07-06T03:24:32;8.13;;;3.13;;
59300;SDS011;45073;52.740;6.784;2022-07-06T03:26:57;6.03;;;2.10;;
59300;SDS011;45073;52.740;6.784;2022-07-06T03:29:23;7.63;;;1.92;;
59300;SDS011;45073;52.740;6.784;2022-07-06T03:31:48;8.77;;;2.80;;
59300;SDS011;45073;52.740;6.784;2022-07-06T03:34:14;7.97;;;3.08;;
59300;SDS011;45073;52.740;6.784;2022-07-06T03:36:40;7.40;;;2.92;;
59300;SDS011;45073;52.740;6.784;2022-07-06T03:39:05;6.03;;;1.83;;
59300;SDS011;45073;52.740;6.784;2022-07-06T03:41:31;8.88;;;3.20;;
59300;SDS011;45073;52.740;6.784;2022-07-06T03:43:57;7.88;;;2.70;;
59300;SDS011;45073;52.740;6.784;2022-07-06T03:46:23;9.20;;;2.53;;
59300;SDS011;45073;52.740;6.784;2022-07-06T03:48:48;8.68;;;3.03;;
59300;SDS011;45073;52.740;6.784;2022-07-06T03:51:14;8.77;;;2.67;;
59300;SDS011;45073;52.740;6.784;2022-07-06T03:53:39;6.43;;;1.95;;
59300;SDS011;45073;52.740;6.784;2022-07-06T03:56:05;5.90;;;2.08;;
59300;SDS011;45073;52.740;6.784;2022-07-06T03:58:49;6.93;;;2.08;;
59300;SDS011;45073;52.740;6.784;2022-07-06T04:01:15;7.00;;;2.70;;
59300;SDS011;45073;52.740;6.784;2022-07-06T04:03:40;6.70;;;1.80;;
59300;SDS011;45073;52.740;6.784;2022-07-06T04:06:06;7.90;;;1.90;;
59300;SDS011;45073;52.740;6.784;2022-07-06T04:08:31;7.40;;;2.03;;
59300;SDS011;45073;52.740;6.784;2022-07-06T04:10:57;10.15;;;2.92;;
59300;SDS011;45073;52.740;6.784;2022-07-06T04:13:22;9.82;;;2.10;;
59300;SDS011;45073;52.740;6.784;2022-07-06T04:15:50;8.65;;;2.50;;
59300;SDS011;45073;52.740;6.784;2022-07-06T04:18:16;6.85;;;2.03;;
59300;SDS011;45073;52.740;6.784;2022-07-06T04:20:41;5.90;;;1.98;;
59300;SDS011;45073;52.740;6.784;2022-07-06T04:23:07;7.88;;;2.65;;
59300;SDS011;45073;52.740;6.784;2022-07-06T04:25:33;8.20;;;2.40;;
59300;SDS011;45073;52.740;6.784;2022-07-06T04:27:59;5.35;;;1.60;;
59300;SDS011;45073;52.740;6.784;2022-07-06T04:30:24;8.52;;;2.20;;
59300;SDS011;45073;52.740;6.784;2022-07-06T04:32:50;8.68;;;2.97;;
59300;SDS011;45073;52.740;6.784;2022-07-06T04:35:16;7.85;;;2.00;;
59300;SDS011;45073;52.740;6.784;2022-07-06T04:37:41;7.35;;;2.00;;
59300;SDS011;45073;52.740;6.784;2022-07-06T04:40:07;8.15;;;2.53;;
59300;SDS011;45073;52.740;6.784;2022-07-06T04:42:33;6.03;;;2.35;;
59300;SDS011;45073;52.740;6.784;2022-07-06T04:44:58;6.88;;;2.53;;
59300;SDS011;45073;52.740;6.784;2022-07-06T04:47:24;7.40;;;2.08;;
59300;SDS011;45073;52.740;6.784;2022-07-06T04:49:50;8.90;;;2.80;;
59300;SDS011;45073;52.740;6.784;2022-07-06T04:52:15;7.28;;;2.90;;
59300;SDS011;45073;52.740;6.784;2022-07-06T04:54:41;7.90;;;2.55;;
59300;SDS011;45073;52.740;6.784;2022-07-06T04:57:06;7.82;;;2.38;;
59300;SDS011;45073;52.740;6.784;2022-07-06T04:59:32;7.70;;;3.05;;
59300;SDS011;45073;52.740;6.784;2022-07-06T05:01:57;7.38;;;2.13;;
59300;SDS011;45073;52.740;6.784;2022-07-06T05:04:23;9.52;;;2.80;;
59300;SDS011;45073;52.740;6.784;2022-07-06T05:06:49;8.20;;;2.88;;
59300;SDS011;45073;52.740;6.784;2022-07-06T05:09:15;8.07;;;2.35;;
59300;SDS011;45073;52.740;6.784;2022-07-06T05:11:40;6.95;;;1.98;;
59300;SDS011;45073;52.740;6.784;2022-07-06T05:14:06;7.97;;;2.15;;
59300;SDS011;45073;52.740;6.784;2022-07-06T05:16:32;6.90;;;2.00;;
59300;SDS011;45073;52.740;6.784;2022-07-06T05:18:58;7.35;;;1.98;;
59300;SDS011;45073;52.740;6.784;2022-07-06T05:21:23;7.47;;;2.35;;
59300;SDS011;45073;52.740;6.784;2022-07-06T05:23:49;8.45;;;2.65;;
59300;SDS011;45073;52.740;6.784;2022-07-06T05:26:15;8.90;;;2.60;;
59300;SDS011;45073;52.740;6.784;2022-07-06T05:28:41;7.10;;;1.90;;
59300;SDS011;45073;52.740;6.784;2022-07-06T05:31:06;6.15;;;2.10;;
59300;SDS011;45073;52.740;6.784;2022-07-06T05:33:32;7.93;;;1.85;;
59300;SDS011;45073;52.740;6.784;2022-07-06T05:35:58;9.02;;;2.30;;
59300;SDS011;45073;52.740;6.784;2022-07-06T05:38:23;6.95;;;1.90;;
59300;SDS011;45073;52.740;6.784;2022-07-06T05:40:49;7.15;;;1.80;;
59300;SDS011;45073;52.740;6.784;2022-07-06T05:43:15;6.40;;;1.75;;
59300;SDS011;45073;52.740;6.784;2022-07-06T05:45:41;8.02;;;2.10;;
59300;SDS011;45073;52.740;6.784;2022-07-06T05:48:07;6.68;;;1.55;;
59300;SDS011;45073;52.740;6.784;2022-07-06T05:50:50;7.82;;;1.60;;
59300;SDS011;45073;52.740;6.784;2022-07-06T05:53:16;5.22;;;1.58;;
59300;SDS011;45073;52.740;6.784;2022-07-06T05:55:42;7.10;;;1.40;;
59300;SDS011;45073;52.740;6.784;2022-07-06T05:58:07;7.30;;;1.95;;
59300;SDS011;45073;52.740;6.784;2022-07-06T06:00:33;9.70;;;1.63;;
59300;SDS011;45073;52.740;6.784;2022-07-06T06:02:59;7.38;;;1.40;;
59300;SDS011;45073;52.740;6.784;2022-07-06T06:05:25;9.20;;;1.90;;
59300;SDS011;45073;52.740;6.784;2022-07-06T06:07:51;6.05;;;1.40;;
59300;SDS011;45073;52.740;6.784;2022-07-06T06:10:18;7.05;;;1.45;;
59300;SDS011;45073;52.740;6.784;2022-07-06T06:12:44;6.13;;;1.30;;
59300;SDS011;45073;52.740;6.784;2022-07-06T06:15:11;6.15;;;1.05;;
59300;SDS011;45073;52.740;6.784;2022-07-06T06:17:37;7.00;;;1.20;;
59300;SDS011;45073;52.740;6.784;2022-07-06T06:20:04;7.00;;;1.52;;
59300;SDS011;45073;52.740;6.784;2022-07-06T06:22:32;5.85;;;1.10;;
59300;SDS011;45073;52.740;6.784;2022-07-06T06:25:18;5.32;;;1.00;;
59300;SDS011;45073;52.740;6.784;2022-07-06T06:27:45;7.70;;;1.50;;
59300;SDS011;45073;52.740;6.784;2022-07-06T06:30:11;7.35;;;1.15;;
59300;SDS011;45073;52.740;6.784;2022-07-06T06:32:37;6.93;;;1.08;;
59300;SDS011;45073;52.740;6.784;2022-07-06T06:35:04;11.73;;;1.35;;
59300;SDS011;45073;52.740;6.784;2022-07-06T06:37:30;5.00;;;1.17;;
59300;SDS011;45073;52.740;6.784;2022-07-06T06:39:55;8.43;;;1.80;;
59300;SDS011;45073;52.740;6.784;2022-07-06T06:42:21;8.23;;;1.20;;
59300;SDS011;45073;52.740;6.784;2022-07-06T06:44:47;6.93;;;0.93;;
59300;SDS011;45073;52.740;6.784;2022-07-06T06:47:12;6.25;;;1.25;;
59300;SDS011;45073;52.740;6.784;2022-07-06T06:49:38;7.22;;;1.40;;
59300;SDS011;45073;52.740;6.784;2022-07-06T06:52:03;7.18;;;1.17;;
59300;SDS011;45073;52.740;6.784;2022-07-06T06:54:29;9.30;;;1.38;;
59300;SDS011;45073;52.740;6.784;2022-07-06T06:56:55;10.55;;;1.50;;
59300;SDS011;45073;52.740;6.784;2022-07-06T06:59:20;8.75;;;1.40;;
59300;SDS011;45073;52.740;6.784;2022-07-06T07:01:46;6.20;;;1.10;;
59300;SDS011;45073;52.740;6.784;2022-07-06T07:04:12;5.95;;;1.20;;
59300;SDS011;45073;52.740;6.784;2022-07-06T07:06:38;5.18;;;1.02;;
59300;SDS011;45073;52.740;6.784;2022-07-06T07:09:03;5.70;;;1.20;;
59300;SDS011;45073;52.740;6.784;2022-07-06T07:11:30;9.23;;;1.65;;
59300;SDS011;45073;52.740;6.784;2022-07-06T07:13:56;6.13;;;1.20;;
59300;SDS011;45073;52.740;6.784;2022-07-06T07:16:21;5.85;;;1.30;;
59300;SDS011;45073;52.740;6.784;2022-07-06T07:18:49;8.23;;;1.15;;
59300;SDS011;45073;52.740;6.784;2022-07-06T07:21:15;94.65;;;6.60;;
59300;SDS011;45073;52.740;6.784;2022-07-06T07:23:40;6.68;;;1.50;;
59300;SDS011;45073;52.740;6.784;2022-07-06T07:26:06;7.07;;;1.58;;
59300;SDS011;45073;52.740;6.784;2022-07-06T07:28:32;5.18;;;1.10;;
59300;SDS011;45073;52.740;6.784;2022-07-06T07:30:57;7.32;;;1.40;;
59300;SDS011;45073;52.740;6.784;2022-07-06T07:33:23;8.60;;;1.20;;
59300;SDS011;45073;52.740;6.784;2022-07-06T07:35:48;6.50;;;1.10;;
59300;SDS011;45073;52.740;6.784;2022-07-06T07:38:14;17.52;;;1.80;;
59300;SDS011;45073;52.740;6.784;2022-07-06T07:40:39;5.15;;;1.20;;
59300;SDS011;45073;52.740;6.784;2022-07-06T07:43:05;6.45;;;1.20;;
59300;SDS011;45073;52.740;6.784;2022-07-06T07:45:31;6.00;;;1.00;;
59300;SDS011;45073;52.740;6.784;2022-07-06T07:47:56;5.68;;;1.15;;
59300;SDS011;45073;52.740;6.784;2022-07-06T07:50:22;8.43;;;1.13;;
59300;SDS011;45073;52.740;6.784;2022-07-06T07:52:47;6.60;;;1.15;;
59300;SDS011;45073;52.740;6.784;2022-07-06T07:55:13;5.70;;;0.95;;
59300;SDS011;45073;52.740;6.784;2022-07-06T07:57:38;9.63;;;1.40;;
59300;SDS011;45073;52.740;6.784;2022-07-06T08:00:05;9.60;;;1.35;;
59300;SDS011;45073;52.740;6.784;2022-07-06T08:02:31;7.53;;;1.55;;
59300;SDS011;45073;52.740;6.784;2022-07-06T08:04:56;7.55;;;1.15;;
59300;SDS011;45073;52.740;6.784;2022-07-06T08:07:22;6.10;;;1.10;;
59300;SDS011;45073;52.740;6.784;2022-07-06T08:09:47;5.47;;;1.10;;
59300;SDS011;45073;52.740;6.784;2022-07-06T08:12:13;7.70;;;1.73;;
59300;SDS011;45073;52.740;6.784;2022-07-06T08:14:39;6.88;;;1.15;;
59300;SDS011;45073;52.740;6.784;2022-07-06T08:17:04;7.00;;;1.38;;
59300;SDS011;45073;52.740;6.784;2022-07-06T08:19:30;5.47;;;1.00;;
59300;SDS011;45073;52.740;6.784;2022-07-06T08:21:56;5.10;;;1.00;;
59300;SDS011;45073;52.740;6.784;2022-07-06T08:24:22;6.95;;;1.30;;
59300;SDS011;45073;52.740;6.784;2022-07-06T08:26:47;4.72;;;1.00;;
59300;SDS011;45073;52.740;6.784;2022-07-06T08:29:13;6.45;;;1.10;;
59300;SDS011;45073;52.740;6.784;2022-07-06T08:31:39;6.00;;;1.08;;
59300;SDS011;45073;52.740;6.784;2022-07-06T08:34:04;7.35;;;1.33;;
59300;SDS011;45073;52.740;6.784;2022-07-06T08:36:30;13.38;;;1.63;;
59300;SDS011;45073;52.740;6.784;2022-07-06T08:38:55;5.75;;;1.20;;
59300;SDS011;45073;52.740;6.784;2022-07-06T08:41:22;5.00;;;1.20;;
59300;SDS011;45073;52.740;6.784;2022-07-06T08:43:50;5.75;;;1.30;;
59300;SDS011;45073;52.740;6.784;2022-07-06T08:46:16;16.75;;;1.73;;
59300;SDS011;45073;52.740;6.784;2022-07-06T08:48:44;8.15;;;1.20;;
59300;SDS011;45073;52.740;6.784;2022-07-06T08:51:12;4.85;;;1.00;;
59300;SDS011;45073;52.740;6.784;2022-07-06T08:53:39;6.60;;;1.13;;
59300;SDS011;45073;52.740;6.784;2022-07-06T08:56:06;7.10;;;1.20;;
59300;SDS011;45073;52.740;6.784;2022-07-06T08:58:32;3.67;;;0.90;;
59300;SDS011;45073;52.740;6.784;2022-07-06T09:00:59;13.35;;;1.85;;
59300;SDS011;45073;52.740;6.784;2022-07-06T09:03:25;10.00;;;1.63;;
59300;SDS011;45073;52.740;6.784;2022-07-06T09:05:53;6.65;;;1.40;;
59300;SDS011;45073;52.740;6.784;2022-07-06T09:08:23;21.35;;;2.80;;
59300;SDS011;45073;52.740;6.784;2022-07-06T09:10:51;20.95;;;2.50;;
59300;SDS011;45073;52.740;6.784;2022-07-06T09:13:17;5.32;;;1.10;;
59300;SDS011;45073;52.740;6.784;2022-07-06T09:15:43;6.13;;;1.20;;
59300;SDS011;45073;52.740;6.784;2022-07-06T09:18:08;5.05;;;1.00;;
59300;SDS011;45073;52.740;6.784;2022-07-06T09:20:34;8.93;;;1.10;;
59300;SDS011;45073;52.740;6.784;2022-07-06T09:23:02;5.30;;;0.95;;
59300;SDS011;45073;52.740;6.784;2022-07-06T09:25:30;8.38;;;1.25;;
59300;SDS011;45073;52.740;6.784;2022-07-06T09:27:56;5.00;;;1.10;;
59300;SDS011;45073;52.740;6.784;2022-07-06T09:30:24;3.03;;;0.73;;
59300;SDS011;45073;52.740;6.784;2022-07-06T09:32:52;7.05;;;1.17;;
59300;SDS011;45073;52.740;6.784;2022-07-06T09:38:05;8.00;;;1.02;;
59300;SDS011;45073;52.740;6.784;2022-07-06T09:40:38;5.15;;;0.80;;
59300;SDS011;45073;52.740;6.784;2022-07-06T09:45:35;4.30;;;0.90;;
59300;SDS011;45073;52.740;6.784;2022-07-06T09:48:09;3.47;;;0.90;;
59300;SDS011;45073;52.740;6.784;2022-07-06T09:50:40;5.22;;;1.10;;
59300;SDS011;45073;52.740;6.784;2022-07-06T09:53:08;6.05;;;1.00;;
59300;SDS011;45073;52.740;6.784;2022-07-06T09:55:34;4.57;;;0.90;;
59300;SDS011;45073;52.740;6.784;2022-07-06T09:57:59;7.53;;;0.90;;
59300;SDS011;45073;52.740;6.784;2022-07-06T10:00:25;6.90;;;1.00;;
59300;SDS011;45073;52.740;6.784;2022-07-06T10:02:51;9.90;;;1.15;;
59300;SDS011;45073;52.740;6.784;2022-07-06T10:05:18;59.63;;;4.85;;
59300;SDS011;45073;52.740;6.784;2022-07-06T10:07:46;4.60;;;0.90;;
59300;SDS011;45073;52.740;6.784;2022-07-06T10:10:15;5.45;;;0.90;;
59300;SDS011;45073;52.740;6.784;2022-07-06T10:12:42;4.20;;;0.90;;
59300;SDS011;45073;52.740;6.784;2022-07-06T10:17:40;4.10;;;0.70;;
59300;SDS011;45073;52.740;6.784;2022-07-06T10:20:06;5.88;;;0.80;;
59300;SDS011;45073;52.740;6.784;2022-07-06T10:22:34;2.88;;;0.60;;
59300;SDS011;45073;52.740;6.784;2022-07-06T10:24:59;4.53;;;0.75;;
59300;SDS011;45073;52.740;6.784;2022-07-06T10:27:26;6.30;;;0.90;;
59300;SDS011;45073;52.740;6.784;2022-07-06T10:29:53;4.10;;;0.65;;
59300;SDS011;45073;52.740;6.784;2022-07-06T10:32:19;5.75;;;0.90;;
59300;SDS011;45073;52.740;6.784;2022-07-06T10:34:45;3.65;;;0.65;;
59300;SDS011;45073;52.740;6.784;2022-07-06T10:37:21;6.20;;;0.63;;
59300;SDS011;45073;52.740;6.784;2022-07-06T10:39:51;2.40;;;0.68;;
59300;SDS011;45073;52.740;6.784;2022-07-06T10:42:40;4.70;;;0.70;;
59300;SDS011;45073;52.740;6.784;2022-07-06T10:45:08;3.88;;;0.68;;
59300;SDS011;45073;52.740;6.784;2022-07-06T10:47:35;3.85;;;0.80;;
59300;SDS011;45073;52.740;6.784;2022-07-06T10:50:01;4.93;;;0.90;;
59300;SDS011;45073;52.740;6.784;2022-07-06T10:55:32;4.57;;;0.80;;
59300;SDS011;45073;52.740;6.784;2022-07-06T10:58:00;2.10;;;0.63;;
59300;SDS011;45073;52.740;6.784;2022-07-06T11:00:41;4.95;;;0.63;;
59300;SDS011;45073;52.740;6.784;2022-07-06T11:03:29;9.30;;;1.10;;
59300;SDS011;45073;52.740;6.784;2022-07-06T11:06:18;4.57;;;1.00;;
59300;SDS011;45073;52.740;6.784;2022-07-06T11:11:21;4.00;;;0.70;;
59300;SDS011;45073;52.740;6.784;2022-07-06T11:16:38;5.00;;;0.95;;
59300;SDS011;45073;52.740;6.784;2022-07-06T11:19:26;4.95;;;0.95;;
59300;SDS011;45073;52.740;6.784;2022-07-06T11:24:20;5.35;;;0.85;;
59300;SDS011;45073;52.740;6.784;2022-07-06T11:26:50;7.38;;;1.10;;
59300;SDS011;45073;52.740;6.784;2022-07-06T11:29:18;9.77;;;1.20;;
59300;SDS011;45073;52.740;6.784;2022-07-06T11:31:49;11.23;;;1.60;;
59300;SDS011;45073;52.740;6.784;2022-07-06T11:34:27;8.77;;;1.40;;
59300;SDS011;45073;52.740;6.784;2022-07-06T11:36:58;4.60;;;1.05;;
59300;SDS011;45073;52.740;6.784;2022-07-06T11:39:28;31.20;;;3.13;;
59300;SDS011;45073;52.740;6.784;2022-07-06T11:41:55;5.07;;;0.90;;
59300;SDS011;45073;52.740;6.784;2022-07-06T11:44:21;3.97;;;0.77;;
59300;SDS011;45073;52.740;6.784;2022-07-06T11:46:47;3.17;;;0.82;;
59300;SDS011;45073;52.740;6.784;2022-07-06T11:49:13;4.65;;;0.80;;
59300;SDS011;45073;52.740;6.784;2022-07-06T11:51:40;10.38;;;1.13;;
59300;SDS011;45073;52.740;6.784;2022-07-06T11:54:27;8.27;;;1.10;;
59300;SDS011;45073;52.740;6.784;2022-07-06T11:56:56;5.03;;;0.82;;
59300;SDS011;45073;52.740;6.784;2022-07-06T11:59:27;4.78;;;0.80;;
59300;SDS011;45073;52.740;6.784;2022-07-06T12:02:04;7.30;;;1.05;;
59300;SDS011;45073;52.740;6.784;2022-07-06T12:04:32;5.05;;;0.90;;
59300;SDS011;45073;52.740;6.784;2022-07-06T12:07:03;3.40;;;0.88;;
59300;SDS011;45073;52.740;6.784;2022-07-06T12:09:37;6.40;;;1.50;;
59300;SDS011;45073;52.740;6.784;2022-07-06T12:12:05;3.47;;;1.02;;
59300;SDS011;45073;52.740;6.784;2022-07-06T12:14:32;5.63;;;0.93;;
59300;SDS011;45073;52.740;6.784;2022-07-06T12:17:09;3.45;;;0.70;;
59300;SDS011;45073;52.740;6.784;2022-07-06T12:19:36;4.82;;;0.98;;
59300;SDS011;45073;52.740;6.784;2022-07-06T12:22:03;4.32;;;0.90;;
59300;SDS011;45073;52.740;6.784;2022-07-06T12:24:29;4.43;;;0.80;;
59300;SDS011;45073;52.740;6.784;2022-07-06T12:26:57;3.83;;;0.70;;
59300;SDS011;45073;52.740;6.784;2022-07-06T12:29:23;2.45;;;0.75;;
59300;SDS011;45073;52.740;6.784;2022-07-06T12:31:49;6.00;;;1.17;;
59300;SDS011;45073;52.740;6.784;2022-07-06T12:34:24;3.88;;;0.90;;
59300;SDS011;45073;52.740;6.784;2022-07-06T12:37:02;4.93;;;0.70;;
59300;SDS011;45073;52.740;6.784;2022-07-06T12:39:31;5.18;;;1.00;;
59300;SDS011;45073;52.740;6.784;2022-07-06T12:42:03;4.85;;;0.93;;
59300;SDS011;45073;52.740;6.784;2022-07-06T12:44:30;3.92;;;0.80;;
59300;SDS011;45073;52.740;6.784;2022-07-06T12:49:32;4.18;;;0.90;;
59300;SDS011;45073;52.740;6.784;2022-07-06T12:54:35;5.78;;;1.05;;
59300;SDS011;45073;52.740;6.784;2022-07-06T12:57:07;5.47;;;1.00;;
59300;SDS011;45073;52.740;6.784;2022-07-06T12:59:41;5.90;;;0.75;;
59300;SDS011;45073;52.740;6.784;2022-07-06T13:02:27;6.50;;;1.17;;
59300;SDS011;45073;52.740;6.784;2022-07-06T13:07:29;7.65;;;1.10;;
59300;SDS011;45073;52.740;6.784;2022-07-06T13:09:57;5.90;;;0.98;;
59300;SDS011;45073;52.740;6.784;2022-07-06T13:12:23;5.80;;;1.33;;
59300;SDS011;45073;52.740;6.784;2022-07-06T13:14:50;5.30;;;0.90;;
59300;SDS011;45073;52.740;6.784;2022-07-06T13:17:16;5.75;;;1.10;;
59300;SDS011;45073;52.740;6.784;2022-07-06T13:19:42;6.07;;;1.13;;
59300;SDS011;45073;52.740;6.784;2022-07-06T13:22:08;6.60;;;0.90;;
59300;SDS011;45073;52.740;6.784;2022-07-06T13:24:33;4.55;;;0.80;;
59300;SDS011;45073;52.740;6.784;2022-07-06T13:26:59;5.25;;;0.90;;
59300;SDS011;45073;52.740;6.784;2022-07-06T13:29:25;5.20;;;1.38;;
59300;SDS011;45073;52.740;6.784;2022-07-06T13:31:51;6.00;;;1.13;;
59300;SDS011;45073;52.740;6.784;2022-07-06T13:34:17;2.58;;;0.75;;
59300;SDS011;45073;52.740;6.784;2022-07-06T13:36:42;5.75;;;1.10;;
59300;SDS011;45073;52.740;6.784;2022-07-06T13:39:08;7.68;;;1.13;;
59300;SDS011;45073;52.740;6.784;2022-07-06T13:41:34;5.05;;;0.95;;
59300;SDS011;45073;52.740;6.784;2022-07-06T13:44:00;5.93;;;1.10;;
59300;SDS011;45073;52.740;6.784;2022-07-06T13:46:27;6.38;;;1.30;;
59300;SDS011;45073;52.740;6.784;2022-07-06T13:48:53;5.35;;;1.00;;
59300;SDS011;45073;52.740;6.784;2022-07-06T13:51:19;5.60;;;1.10;;
59300;SDS011;45073;52.740;6.784;2022-07-06T13:53:45;5.60;;;0.90;;
59300;SDS011;45073;52.740;6.784;2022-07-06T13:56:11;3.50;;;0.85;;
59300;SDS011;45073;52.740;6.784;2022-07-06T13:58:37;5.30;;;1.00;;
59300;SDS011;45073;52.740;6.784;2022-07-06T14:01:03;3.95;;;1.00;;
59300;SDS011;45073;52.740;6.784;2022-07-06T14:03:29;5.50;;;1.42;;
59300;SDS011;45073;52.740;6.784;2022-07-06T14:05:59;4.38;;;0.80;;
59300;SDS011;45073;52.740;6.784;2022-07-06T14:08:26;5.13;;;1.30;;
59300;SDS011;45073;52.740;6.784;2022-07-06T14:10:53;4.97;;;1.10;;
59300;SDS011;45073;52.740;6.784;2022-07-06T14:13:19;4.82;;;1.02;;
59300;SDS011;45073;52.740;6.784;2022-07-06T14:15:46;3.33;;;0.85;;
59300;SDS011;45073;52.740;6.784;2022-07-06T14:18:12;3.25;;;0.90;;
59300;SDS011;45073;52.740;6.784;2022-07-06T14:20:38;5.28;;;1.10;;
59300;SDS011;45073;52.740;6.784;2022-07-06T14:23:03;5.05;;;0.80;;
59300;SDS011;45073;52.740;6.784;2022-07-06T14:25:29;6.78;;;1.02;;
59300;SDS011;45073;52.740;6.784;2022-07-06T14:27:55;8.55;;;1.35;;
59300;SDS011;45073;52.740;6.784;2022-07-06T14:30:21;4.13;;;0.73;;
59300;SDS011;45073;52.740;6.784;2022-07-06T14:32:46;5.63;;;1.13;;
59300;SDS011;45073;52.740;6.784;2022-07-06T14:35:12;4.60;;;1.02;;
59300;SDS011;45073;52.740;6.784;2022-07-06T14:37:37;4.20;;;0.93;;
59300;SDS011;45073;52.740;6.784;2022-07-06T14:40:03;4.93;;;1.00;;
59300;SDS011;45073;52.740;6.784;2022-07-06T14:42:29;3.70;;;1.00;;
59300;SDS011;45073;52.740;6.784;2022-07-06T14:44:55;6.15;;;1.15;;
59300;SDS011;45073;52.740;6.784;2022-07-06T14:47:20;4.53;;;1.00;;
59300;SDS011;45073;52.740;6.784;2022-07-06T14:49:46;2.65;;;0.80;;
59300;SDS011;45073;52.740;6.784;2022-07-06T14:52:12;4.18;;;0.95;;
59300;SDS011;45073;52.740;6.784;2022-07-06T14:54:37;5.22;;;1.20;;
59300;SDS011;45073;52.740;6.784;2022-07-06T14:57:03;3.47;;;0.90;;
59300;SDS011;45073;52.740;6.784;2022-07-06T14:59:29;5.65;;;1.10;;
59300;SDS011;45073;52.740;6.784;2022-07-06T15:01:55;4.22;;;0.90;;
59300;SDS011;45073;52.740;6.784;2022-07-06T15:04:21;5.20;;;1.15;;
59300;SDS011;45073;52.740;6.784;2022-07-06T15:06:47;6.63;;;1.38;;
59300;SDS011;45073;52.740;6.784;2022-07-06T15:09:13;5.80;;;1.33;;
59300;SDS011;45073;52.740;6.784;2022-07-06T15:11:39;6.22;;;1.30;;